Terminal Aerodrome Forecast
Issued by NWS Charleston, WV

Current Version | Previous Version | Graphics & Text | Print | Product List | Glossary On
Versions: 1 2 3 4 5 6 7 8 9 10 11 12 13 14 15 16 17 18 19 20 21 22
000
FTUS41 KRLX 171100
TAFEKN
TAF
KEKN 171138Z 1712/1812 00000KT 6SM -SHRA BR BKN015
      TEMPO 1713/1715 2SM SHRA BR BKN015
     FM171500 VRB03KT P6SM BKN015
     FM172000 26005KT P6SM SCT025
     FM180200 00000KT P6SM BKN015
     FM180600 00000KT 1SM BR SCT001
     FM180800 00000KT 1/2SM FG VV001
     FM181100 00000KT 1 1/2SM BR BKN002=

USA.gov is the U.S. government's official web portal to all federal, state and local government web resources and services.